Leesburg, Texas
Current Conditions -  °F | °C
As of 8:15 AM on Wednesday 26 Nov 2014 (Local Time) from KOSA Reporting Station
Clear Clear  
Wind Chill: 46°   Ceiling: Unl
Heat Index: 46°   Visibility: 10mi
Dew Point: 34°   Wind: 3mph
Humidity: 65%   Direction: 210°SSW
Pressure: 30.09"   Gusts: NA
Location:  32.99°N, 95.08°W
Report Text: KOSA 261415Z AUTO 21003KT 10SM CLR 08/01 A3009 RMK AO1 T00750012
Loading
Personal Weather Stations






























Interactive Weather Map New forecast layout! Learn more

10-Day Weather Forecast

Advertisements
Track Severe Weather on mobile